sensor_id;sensor_type;location;lat;lon;timestamp;temperature;humidity
10046;DHT22;5063;50.878;4.742;2023-06-14T00:01:44;18.80;99.90
10046;DHT22;5063;50.878;4.742;2023-06-14T00:04:12;18.80;99.90
10046;DHT22;5063;50.878;4.742;2023-06-14T00:06:38;18.70;99.90
10046;DHT22;5063;50.878;4.742;2023-06-14T00:09:04;18.70;99.90
10046;DHT22;5063;50.878;4.742;2023-06-14T00:11:33;18.60;99.90
10046;DHT22;5063;50.878;4.742;2023-06-14T00:13:59;18.60;99.90
10046;DHT22;5063;50.878;4.742;2023-06-14T00:16:25;18.60;99.90
10046;DHT22;5063;50.878;4.742;2023-06-14T00:18:51;18.50;99.90
10046;DHT22;5063;50.878;4.742;2023-06-14T00:21:17;18.50;99.90
10046;DHT22;5063;50.878;4.742;2023-06-14T00:23:43;18.50;99.90
10046;DHT22;5063;50.878;4.742;2023-06-14T00:26:09;18.40;99.90
10046;DHT22;5063;50.878;4.742;2023-06-14T00:28:35;18.40;99.90
10046;DHT22;5063;50.878;4.742;2023-06-14T00:31:00;18.40;99.90
10046;DHT22;5063;50.878;4.742;2023-06-14T00:33:26;18.40;99.90
10046;DHT22;5063;50.878;4.742;2023-06-14T00:35:52;18.30;99.90
10046;DHT22;5063;50.878;4.742;2023-06-14T00:38:20;18.30;99.90
10046;DHT22;5063;50.878;4.742;2023-06-14T00:40:46;18.30;99.90
10046;DHT22;5063;50.878;4.742;2023-06-14T00:43:12;18.20;99.90
10046;DHT22;5063;50.878;4.742;2023-06-14T00:45:38;18.20;99.90
10046;DHT22;5063;50.878;4.742;2023-06-14T00:48:05;18.10;99.90
10046;DHT22;5063;50.878;4.742;2023-06-14T00:50:32;18.10;99.90
10046;DHT22;5063;50.878;4.742;2023-06-14T00:53:00;18.10;99.90
10046;DHT22;5063;50.878;4.742;2023-06-14T00:55:27;18.00;99.90
10046;DHT22;5063;50.878;4.742;2023-06-14T00:57:54;18.00;99.90
10046;DHT22;5063;50.878;4.742;2023-06-14T01:00:20;17.90;99.90
10046;DHT22;5063;50.878;4.742;2023-06-14T01:02:46;17.80;99.90
10046;DHT22;5063;50.878;4.742;2023-06-14T01:05:14;17.80;99.90
10046;DHT22;5063;50.878;4.742;2023-06-14T01:13:19;17.60;99.90
10046;DHT22;5063;50.878;4.742;2023-06-14T01:15:46;17.40;99.90
10046;DHT22;5063;50.878;4.742;2023-06-14T01:18:13;17.40;99.90
10046;DHT22;5063;50.878;4.742;2023-06-14T01:20:44;17.30;99.90
10046;DHT22;5063;50.878;4.742;2023-06-14T01:23:19;17.10;99.90
10046;DHT22;5063;50.878;4.742;2023-06-14T01:25:46;16.90;99.90
10046;DHT22;5063;50.878;4.742;2023-06-14T01:28:13;16.80;99.90
10046;DHT22;5063;50.878;4.742;2023-06-14T01:30:41;16.60;99.90
10046;DHT22;5063;50.878;4.742;2023-06-14T01:33:12;16.50;99.90
10046;DHT22;5063;50.878;4.742;2023-06-14T01:35:41;16.40;99.90
10046;DHT22;5063;50.878;4.742;2023-06-14T01:38:07;16.30;99.90
10046;DHT22;5063;50.878;4.742;2023-06-14T01:40:34;16.20;99.90
10046;DHT22;5063;50.878;4.742;2023-06-14T01:43:01;16.10;99.90
10046;DHT22;5063;50.878;4.742;2023-06-14T01:45:28;16.10;99.90
10046;DHT22;5063;50.878;4.742;2023-06-14T01:47:55;16.10;99.90
10046;DHT22;5063;50.878;4.742;2023-06-14T01:50:20;16.00;99.90
10046;DHT22;5063;50.878;4.742;2023-06-14T01:52:46;15.90;99.90
10046;DHT22;5063;50.878;4.742;2023-06-14T01:55:12;15.80;99.90
10046;DHT22;5063;50.878;4.742;2023-06-14T01:57:38;15.80;99.90
10046;DHT22;5063;50.878;4.742;2023-06-14T02:00:05;15.80;99.90
10046;DHT22;5063;50.878;4.742;2023-06-14T02:02:36;15.70;99.90
10046;DHT22;5063;50.878;4.742;2023-06-14T02:05:01;15.80;99.90
10046;DHT22;5063;50.878;4.742;2023-06-14T02:07:27;15.70;99.90
10046;DHT22;5063;50.878;4.742;2023-06-14T02:09:53;15.70;99.90
10046;DHT22;5063;50.878;4.742;2023-06-14T02:12:19;15.80;99.90
10046;DHT22;5063;50.878;4.742;2023-06-14T02:14:45;15.80;99.90
10046;DHT22;5063;50.878;4.742;2023-06-14T02:17:10;15.80;99.90
10046;DHT22;5063;50.878;4.742;2023-06-14T02:19:37;15.80;99.90
10046;DHT22;5063;50.878;4.742;2023-06-14T02:22:03;15.90;99.90
10046;DHT22;5063;50.878;4.742;2023-06-14T02:24:28;15.90;99.90
10046;DHT22;5063;50.878;4.742;2023-06-14T02:26:54;15.90;99.90
10046;DHT22;5063;50.878;4.742;2023-06-14T02:29:20;15.90;99.90
10046;DHT22;5063;50.878;4.742;2023-06-14T02:31:46;16.00;99.90
10046;DHT22;5063;50.878;4.742;2023-06-14T02:34:14;16.30;99.90
10046;DHT22;5063;50.878;4.742;2023-06-14T02:36:42;16.10;99.90
10046;DHT22;5063;50.878;4.742;2023-06-14T02:39:08;16.20;99.90
10046;DHT22;5063;50.878;4.742;2023-06-14T02:41:38;16.20;99.90
10046;DHT22;5063;50.878;4.742;2023-06-14T02:44:04;16.30;99.90
10046;DHT22;5063;50.878;4.742;2023-06-14T02:46:30;16.30;99.90
10046;DHT22;5063;50.878;4.742;2023-06-14T02:48:55;16.30;99.90
10046;DHT22;5063;50.878;4.742;2023-06-14T02:51:21;16.20;99.90
10046;DHT22;5063;50.878;4.742;2023-06-14T02:53:47;16.20;99.90
10046;DHT22;5063;50.878;4.742;2023-06-14T02:56:13;16.10;99.90
10046;DHT22;5063;50.878;4.742;2023-06-14T02:58:38;16.00;99.90
10046;DHT22;5063;50.878;4.742;2023-06-14T03:01:06;16.00;99.90
10046;DHT22;5063;50.878;4.742;2023-06-14T03:03:33;15.90;99.90
10046;DHT22;5063;50.878;4.742;2023-06-14T03:05:59;15.90;99.90
10046;DHT22;5063;50.878;4.742;2023-06-14T03:08:31;15.90;99.90
10046;DHT22;5063;50.878;4.742;2023-06-14T03:11:04;15.90;99.90
10046;DHT22;5063;50.878;4.742;2023-06-14T03:13:31;15.90;99.90
10046;DHT22;5063;50.878;4.742;2023-06-14T03:15:59;15.90;99.90
10046;DHT22;5063;50.878;4.742;2023-06-14T03:18:29;15.90;99.90
10046;DHT22;5063;50.878;4.742;2023-06-14T03:20:57;15.80;99.90
10046;DHT22;5063;50.878;4.742;2023-06-14T03:23:26;15.80;99.90
10046;DHT22;5063;50.878;4.742;2023-06-14T03:25:52;15.70;99.90
10046;DHT22;5063;50.878;4.742;2023-06-14T03:28:18;15.60;99.90
10046;DHT22;5063;50.878;4.742;2023-06-14T03:30:44;15.60;99.90
10046;DHT22;5063;50.878;4.742;2023-06-14T03:33:10;15.60;99.90
10046;DHT22;5063;50.878;4.742;2023-06-14T03:35:36;15.50;99.90
10046;DHT22;5063;50.878;4.742;2023-06-14T03:38:01;15.50;99.90
10046;DHT22;5063;50.878;4.742;2023-06-14T03:40:28;15.50;99.90
10046;DHT22;5063;50.878;4.742;2023-06-14T03:42:54;15.50;99.90
10046;DHT22;5063;50.878;4.742;2023-06-14T03:45:20;15.50;99.90
10046;DHT22;5063;50.878;4.742;2023-06-14T03:47:46;15.50;99.90
10046;DHT22;5063;50.878;4.742;2023-06-14T03:50:12;15.40;99.90
10046;DHT22;5063;50.878;4.742;2023-06-14T03:52:38;15.40;99.90
10046;DHT22;5063;50.878;4.742;2023-06-14T03:55:04;15.30;99.90
10046;DHT22;5063;50.878;4.742;2023-06-14T03:57:30;15.30;99.90
10046;DHT22;5063;50.878;4.742;2023-06-14T03:59:56;15.40;99.90
10046;DHT22;5063;50.878;4.742;2023-06-14T04:02:22;15.40;99.90
10046;DHT22;5063;50.878;4.742;2023-06-14T04:04:48;15.40;99.90
10046;DHT22;5063;50.878;4.742;2023-06-14T04:07:15;15.50;99.90
10046;DHT22;5063;50.878;4.742;2023-06-14T04:09:42;15.60;99.90
10046;DHT22;5063;50.878;4.742;2023-06-14T04:12:08;15.80;99.90
10046;DHT22;5063;50.878;4.742;2023-06-14T04:14:34;15.90;99.90
10046;DHT22;5063;50.878;4.742;2023-06-14T04:17:00;16.10;99.90
10046;DHT22;5063;50.878;4.742;2023-06-14T04:19:26;16.10;99.90
10046;DHT22;5063;50.878;4.742;2023-06-14T04:21:52;16.30;99.90
10046;DHT22;5063;50.878;4.742;2023-06-14T04:24:18;16.40;99.90
10046;DHT22;5063;50.878;4.742;2023-06-14T04:26:44;16.50;99.90
10046;DHT22;5063;50.878;4.742;2023-06-14T04:29:14;16.60;99.90
10046;DHT22;5063;50.878;4.742;2023-06-14T04:31:42;16.70;99.90
10046;DHT22;5063;50.878;4.742;2023-06-14T04:34:08;16.80;99.90
10046;DHT22;5063;50.878;4.742;2023-06-14T04:36:35;16.90;99.90
10046;DHT22;5063;50.878;4.742;2023-06-14T04:39:03;17.00;99.90
10046;DHT22;5063;50.878;4.742;2023-06-14T04:41:31;17.10;99.90
10046;DHT22;5063;50.878;4.742;2023-06-14T04:43:58;17.20;99.90
10046;DHT22;5063;50.878;4.742;2023-06-14T04:46:30;17.30;99.90
10046;DHT22;5063;50.878;4.742;2023-06-14T04:48:57;17.30;99.90
10046;DHT22;5063;50.878;4.742;2023-06-14T04:51:23;17.40;99.90
10046;DHT22;5063;50.878;4.742;2023-06-14T04:53:58;17.50;99.90
10046;DHT22;5063;50.878;4.742;2023-06-14T04:56:24;17.60;99.90
10046;DHT22;5063;50.878;4.742;2023-06-14T04:58:53;17.70;99.90
10046;DHT22;5063;50.878;4.742;2023-06-14T05:01:19;17.90;99.90
10046;DHT22;5063;50.878;4.742;2023-06-14T05:03:46;18.90;99.90
10046;DHT22;5063;50.878;4.742;2023-06-14T05:06:14;20.90;99.90
10046;DHT22;5063;50.878;4.742;2023-06-14T05:08:41;22.60;99.90
10046;DHT22;5063;50.878;4.742;2023-06-14T05:11:07;23.90;99.90
10046;DHT22;5063;50.878;4.742;2023-06-14T05:13:32;25.20;99.90
10046;DHT22;5063;50.878;4.742;2023-06-14T05:16:00;26.30;99.90
10046;DHT22;5063;50.878;4.742;2023-06-14T05:18:26;27.20;99.90
10046;DHT22;5063;50.878;4.742;2023-06-14T05:20:52;28.30;99.90
10046;DHT22;5063;50.878;4.742;2023-06-14T05:23:17;28.90;99.90
10046;DHT22;5063;50.878;4.742;2023-06-14T05:25:44;29.40;98.10
10046;DHT22;5063;50.878;4.742;2023-06-14T05:28:10;29.60;96.90
10046;DHT22;5063;50.878;4.742;2023-06-14T05:30:38;29.80;96.40
10046;DHT22;5063;50.878;4.742;2023-06-14T05:33:04;30.20;96.20
10046;DHT22;5063;50.878;4.742;2023-06-14T05:35:30;30.30;94.50
10046;DHT22;5063;50.878;4.742;2023-06-14T05:37:56;30.50;94.10
10046;DHT22;5063;50.878;4.742;2023-06-14T05:40:22;30.60;93.50
10046;DHT22;5063;50.878;4.742;2023-06-14T05:42:47;30.80;93.00
10046;DHT22;5063;50.878;4.742;2023-06-14T05:45:13;30.90;92.90
10046;DHT22;5063;50.878;4.742;2023-06-14T05:47:41;31.30;92.20
10046;DHT22;5063;50.878;4.742;2023-06-14T05:50:07;31.40;92.00
10046;DHT22;5063;50.878;4.742;2023-06-14T05:52:34;31.70;91.10
10046;DHT22;5063;50.878;4.742;2023-06-14T05:55:01;31.60;91.00
10046;DHT22;5063;50.878;4.742;2023-06-14T05:57:27;31.60;90.60
10046;DHT22;5063;50.878;4.742;2023-06-14T05:59:52;31.40;90.60
10046;DHT22;5063;50.878;4.742;2023-06-14T06:02:18;31.10;90.80
10046;DHT22;5063;50.878;4.742;2023-06-14T06:04:44;31.50;90.30
10046;DHT22;5063;50.878;4.742;2023-06-14T06:07:10;31.50;90.20
10046;DHT22;5063;50.878;4.742;2023-06-14T06:09:36;31.90;90.70
10046;DHT22;5063;50.878;4.742;2023-06-14T06:12:02;31.90;89.50
10046;DHT22;5063;50.878;4.742;2023-06-14T06:14:28;32.90;88.30
10046;DHT22;5063;50.878;4.742;2023-06-14T06:16:54;33.20;87.10
10046;DHT22;5063;50.878;4.742;2023-06-14T06:19:20;33.50;85.40
10046;DHT22;5063;50.878;4.742;2023-06-14T06:21:46;34.10;85.90
10046;DHT22;5063;50.878;4.742;2023-06-14T06:24:11;34.60;83.70
10046;DHT22;5063;50.878;4.742;2023-06-14T06:26:37;34.80;84.30
10046;DHT22;5063;50.878;4.742;2023-06-14T06:29:04;34.50;82.50
10046;DHT22;5063;50.878;4.742;2023-06-14T06:31:30;34.40;81.70
10046;DHT22;5063;50.878;4.742;2023-06-14T06:33:55;34.80;80.50
10046;DHT22;5063;50.878;4.742;2023-06-14T06:36:21;34.90;79.70
10046;DHT22;5063;50.878;4.742;2023-06-14T06:38:48;34.70;79.90
10046;DHT22;5063;50.878;4.742;2023-06-14T06:41:14;35.10;79.80
10046;DHT22;5063;50.878;4.742;2023-06-14T06:43:39;35.40;78.10
10046;DHT22;5063;50.878;4.742;2023-06-14T06:46:05;34.90;76.20
10046;DHT22;5063;50.878;4.742;2023-06-14T06:48:31;34.80;77.40
10046;DHT22;5063;50.878;4.742;2023-06-14T06:50:57;34.70;77.00
10046;DHT22;5063;50.878;4.742;2023-06-14T06:53:23;34.60;76.40
10046;DHT22;5063;50.878;4.742;2023-06-14T06:55:48;34.30;76.90
10046;DHT22;5063;50.878;4.742;2023-06-14T06:58:14;34.10;75.80
10046;DHT22;5063;50.878;4.742;2023-06-14T07:00:40;33.90;76.40
10046;DHT22;5063;50.878;4.742;2023-06-14T07:03:06;33.60;76.70
10046;DHT22;5063;50.878;4.742;2023-06-14T07:05:32;33.80;76.30
10046;DHT22;5063;50.878;4.742;2023-06-14T07:07:58;33.80;76.10
10046;DHT22;5063;50.878;4.742;2023-06-14T07:10:24;33.60;75.70
10046;DHT22;5063;50.878;4.742;2023-06-14T07:12:50;33.90;75.90
10046;DHT22;5063;50.878;4.742;2023-06-14T07:15:16;34.10;75.20
10046;DHT22;5063;50.878;4.742;2023-06-14T07:17:42;34.00;75.00
10046;DHT22;5063;50.878;4.742;2023-06-14T07:20:08;33.80;75.70
10046;DHT22;5063;50.878;4.742;2023-06-14T07:22:38;34.80;75.60
10046;DHT22;5063;50.878;4.742;2023-06-14T07:25:04;34.60;73.50
10046;DHT22;5063;50.878;4.742;2023-06-14T07:27:30;35.30;73.30
10046;DHT22;5063;50.878;4.742;2023-06-14T07:29:56;35.80;72.30
10046;DHT22;5063;50.878;4.742;2023-06-14T07:32:22;36.10;70.50
10046;DHT22;5063;50.878;4.742;2023-06-14T07:34:48;36.30;71.60
10046;DHT22;5063;50.878;4.742;2023-06-14T07:37:13;36.40;69.90
10046;DHT22;5063;50.878;4.742;2023-06-14T07:39:39;36.00;70.80
10046;DHT22;5063;50.878;4.742;2023-06-14T07:42:05;35.80;70.40
10046;DHT22;5063;50.878;4.742;2023-06-14T07:44:32;36.30;70.80
10046;DHT22;5063;50.878;4.742;2023-06-14T07:46:57;35.60;71.80
10046;DHT22;5063;50.878;4.742;2023-06-14T07:49:26;35.90;72.20
10046;DHT22;5063;50.878;4.742;2023-06-14T07:51:52;36.20;71.60
10046;DHT22;5063;50.878;4.742;2023-06-14T07:54:19;36.50;72.30
10046;DHT22;5063;50.878;4.742;2023-06-14T07:56:50;35.10;72.20
10046;DHT22;5063;50.878;4.742;2023-06-14T07:59:16;35.30;72.30
10046;DHT22;5063;50.878;4.742;2023-06-14T08:01:42;35.50;71.30
10046;DHT22;5063;50.878;4.742;2023-06-14T08:04:15;35.80;71.60
10046;DHT22;5063;50.878;4.742;2023-06-14T08:06:41;34.80;71.60
10046;DHT22;5063;50.878;4.742;2023-06-14T08:09:10;34.00;72.30
10046;DHT22;5063;50.878;4.742;2023-06-14T08:11:36;34.00;72.30
10046;DHT22;5063;50.878;4.742;2023-06-14T08:14:02;34.00;72.30
10046;DHT22;5063;50.878;4.742;2023-06-14T08:16:28;33.90;71.70
10046;DHT22;5063;50.878;4.742;2023-06-14T08:18:55;34.00;72.30
10046;DHT22;5063;50.878;4.742;2023-06-14T08:21:21;33.50;72.30
10046;DHT22;5063;50.878;4.742;2023-06-14T08:23:46;33.60;74.00
10046;DHT22;5063;50.878;4.742;2023-06-14T08:26:13;33.70;73.60
10046;DHT22;5063;50.878;4.742;2023-06-14T08:28:39;33.80;73.10
10046;DHT22;5063;50.878;4.742;2023-06-14T08:31:05;33.70;73.30
10046;DHT22;5063;50.878;4.742;2023-06-14T08:33:31;33.40;73.20
10046;DHT22;5063;50.878;4.742;2023-06-14T08:35:58;33.00;72.20
10046;DHT22;5063;50.878;4.742;2023-06-14T08:38:24;33.40;73.80
10046;DHT22;5063;50.878;4.742;2023-06-14T08:40:50;32.70;71.90
10046;DHT22;5063;50.878;4.742;2023-06-14T08:43:17;32.60;72.80
10046;DHT22;5063;50.878;4.742;2023-06-14T08:45:42;32.70;72.60
10046;DHT22;5063;50.878;4.742;2023-06-14T08:48:09;32.50;72.40
10046;DHT22;5063;50.878;4.742;2023-06-14T08:50:36;32.40;71.80
10046;DHT22;5063;50.878;4.742;2023-06-14T08:53:06;32.30;72.20
10046;DHT22;5063;50.878;4.742;2023-06-14T08:55:36;32.40;73.10
10046;DHT22;5063;50.878;4.742;2023-06-14T08:58:05;32.30;71.30
10046;DHT22;5063;50.878;4.742;2023-06-14T09:00:31;32.50;73.00
10046;DHT22;5063;50.878;4.742;2023-06-14T09:02:58;32.80;73.40
10046;DHT22;5063;50.878;4.742;2023-06-14T09:05:28;33.20;72.90
10046;DHT22;5063;50.878;4.742;2023-06-14T09:07:54;33.50;70.90
10046;DHT22;5063;50.878;4.742;2023-06-14T09:10:21;33.60;70.70
10046;DHT22;5063;50.878;4.742;2023-06-14T09:12:47;33.70;71.00
10046;DHT22;5063;50.878;4.742;2023-06-14T09:15:13;33.70;70.40
10046;DHT22;5063;50.878;4.742;2023-06-14T09:17:40;33.20;70.80
10046;DHT22;5063;50.878;4.742;2023-06-14T09:20:07;33.40;72.30
10046;DHT22;5063;50.878;4.742;2023-06-14T09:22:38;32.90;70.10
10046;DHT22;5063;50.878;4.742;2023-06-14T09:25:05;32.60;71.60
10046;DHT22;5063;50.878;4.742;2023-06-14T09:27:32;32.50;71.50
10046;DHT22;5063;50.878;4.742;2023-06-14T09:29:58;32.20;70.70
10046;DHT22;5063;50.878;4.742;2023-06-14T09:32:24;32.00;70.80
10046;DHT22;5063;50.878;4.742;2023-06-14T09:34:50;31.70;70.50
10046;DHT22;5063;50.878;4.742;2023-06-14T09:37:30;31.60;72.20
10046;DHT22;5063;50.878;4.742;2023-06-14T09:39:56;31.80;72.80
10046;DHT22;5063;50.878;4.742;2023-06-14T09:42:23;31.70;70.50
10046;DHT22;5063;50.878;4.742;2023-06-14T09:44:52;31.80;70.90
10046;DHT22;5063;50.878;4.742;2023-06-14T09:47:20;31.30;69.60
10046;DHT22;5063;50.878;4.742;2023-06-14T09:49:47;30.50;70.00
10046;DHT22;5063;50.878;4.742;2023-06-14T09:52:18;29.60;71.00
10046;DHT22;5063;50.878;4.742;2023-06-14T09:54:46;28.70;71.90
10046;DHT22;5063;50.878;4.742;2023-06-14T09:57:14;28.10;71.70
10046;DHT22;5063;50.878;4.742;2023-06-14T09:59:44;27.70;72.10
10046;DHT22;5063;50.878;4.742;2023-06-14T10:02:18;27.40;74.20
10046;DHT22;5063;50.878;4.742;2023-06-14T10:04:53;27.40;72.30
10046;DHT22;5063;50.878;4.742;2023-06-14T10:07:20;27.20;72.60
10046;DHT22;5063;50.878;4.742;2023-06-14T10:09:47;27.20;70.90
10046;DHT22;5063;50.878;4.742;2023-06-14T10:12:18;27.10;71.30
10046;DHT22;5063;50.878;4.742;2023-06-14T10:14:51;27.00;73.00
10046;DHT22;5063;50.878;4.742;2023-06-14T10:17:29;27.00;72.50
10046;DHT22;5063;50.878;4.742;2023-06-14T10:22:56;26.90;69.30
10046;DHT22;5063;50.878;4.742;2023-06-14T10:25:29;27.00;71.80
10046;DHT22;5063;50.878;4.742;2023-06-14T10:28:22;27.00;73.70
10046;DHT22;5063;50.878;4.742;2023-06-14T10:31:11;27.10;74.00
10046;DHT22;5063;50.878;4.742;2023-06-14T10:33:49;27.00;73.00
10046;DHT22;5063;50.878;4.742;2023-06-14T10:39:20;27.30;75.10
10046;DHT22;5063;50.878;4.742;2023-06-14T10:41:54;27.40;72.50
10046;DHT22;5063;50.878;4.742;2023-06-14T10:46:59;27.50;70.40
10046;DHT22;5063;50.878;4.742;2023-06-14T10:49:41;27.30;72.40
10046;DHT22;5063;50.878;4.742;2023-06-14T10:52:13;27.30;71.60
10046;DHT22;5063;50.878;4.742;2023-06-14T10:55:16;27.30;73.20
10046;DHT22;5063;50.878;4.742;2023-06-14T10:57:51;27.40;70.30
10046;DHT22;5063;50.878;4.742;2023-06-14T11:00:22;27.50;70.90
10046;DHT22;5063;50.878;4.742;2023-06-14T11:03:45;27.50;71.50
10046;DHT22;5063;50.878;4.742;2023-06-14T11:06:15;27.70;70.10
10046;DHT22;5063;50.878;4.742;2023-06-14T11:09:00;27.50;69.50
10046;DHT22;5063;50.878;4.742;2023-06-14T11:11:33;27.30;70.60
10046;DHT22;5063;50.878;4.742;2023-06-14T11:14:00;27.20;70.30
10046;DHT22;5063;50.878;4.742;2023-06-14T11:16:27;27.30;70.70
10046;DHT22;5063;50.878;4.742;2023-06-14T11:18:54;27.30;69.00
10046;DHT22;5063;50.878;4.742;2023-06-14T11:21:19;27.40;71.20
10046;DHT22;5063;50.878;4.742;2023-06-14T11:23:50;27.30;69.90
10046;DHT22;5063;50.878;4.742;2023-06-14T11:26:23;27.50;71.40
10046;DHT22;5063;50.878;4.742;2023-06-14T11:28:55;27.50;70.90
10046;DHT22;5063;50.878;4.742;2023-06-14T11:31:21;27.70;69.90
10046;DHT22;5063;50.878;4.742;2023-06-14T11:33:50;27.30;70.20
10046;DHT22;5063;50.878;4.742;2023-06-14T11:36:16;27.20;71.60
10046;DHT22;5063;50.878;4.742;2023-06-14T11:38:42;27.40;71.20
10046;DHT22;5063;50.878;4.742;2023-06-14T11:41:08;27.40;71.80
10046;DHT22;5063;50.878;4.742;2023-06-14T11:43:33;27.50;71.50
10046;DHT22;5063;50.878;4.742;2023-06-14T11:46:01;27.40;71.40
10046;DHT22;5063;50.878;4.742;2023-06-14T11:48:41;27.40;71.60
10046;DHT22;5063;50.878;4.742;2023-06-14T11:51:07;27.30;71.60
10046;DHT22;5063;50.878;4.742;2023-06-14T11:53:33;27.40;72.40
10046;DHT22;5063;50.878;4.742;2023-06-14T11:56:00;27.50;73.50
10046;DHT22;5063;50.878;4.742;2023-06-14T11:58:26;27.50;71.10
10046;DHT22;5063;50.878;4.742;2023-06-14T12:00:53;27.30;73.90
10046;DHT22;5063;50.878;4.742;2023-06-14T12:03:23;27.60;70.80
10046;DHT22;5063;50.878;4.742;2023-06-14T12:06:01;27.60;70.90
10046;DHT22;5063;50.878;4.742;2023-06-14T12:08:35;27.50;72.00
10046;DHT22;5063;50.878;4.742;2023-06-14T12:11:12;27.60;70.50
10046;DHT22;5063;50.878;4.742;2023-06-14T12:13:43;27.70;70.80
10046;DHT22;5063;50.878;4.742;2023-06-14T12:16:10;27.50;70.00
10046;DHT22;5063;50.878;4.742;2023-06-14T12:18:38;27.60;72.00
10046;DHT22;5063;50.878;4.742;2023-06-14T12:21:06;27.60;71.20
10046;DHT22;5063;50.878;4.742;2023-06-14T12:23:46;27.50;70.20
10046;DHT22;5063;50.878;4.742;2023-06-14T12:26:16;27.70;70.70
10046;DHT22;5063;50.878;4.742;2023-06-14T12:28:46;27.90;72.40
10046;DHT22;5063;50.878;4.742;2023-06-14T12:31:15;27.80;69.50
10046;DHT22;5063;50.878;4.742;2023-06-14T12:33:41;27.80;69.10
10046;DHT22;5063;50.878;4.742;2023-06-14T12:36:08;27.90;68.40
10046;DHT22;5063;50.878;4.742;2023-06-14T12:38:34;27.90;70.30
10046;DHT22;5063;50.878;4.742;2023-06-14T12:41:00;28.10;69.90
10046;DHT22;5063;50.878;4.742;2023-06-14T12:43:27;28.20;69.30
10046;DHT22;5063;50.878;4.742;2023-06-14T12:45:53;28.00;68.40
10046;DHT22;5063;50.878;4.742;2023-06-14T12:48:19;27.70;67.50
10046;DHT22;5063;50.878;4.742;2023-06-14T12:50:45;27.50;70.10
10046;DHT22;5063;50.878;4.742;2023-06-14T12:53:11;27.40;68.60
10046;DHT22;5063;50.878;4.742;2023-06-14T12:55:37;27.60;69.90
10046;DHT22;5063;50.878;4.742;2023-06-14T12:58:03;27.70;69.10
10046;DHT22;5063;50.878;4.742;2023-06-14T13:00:29;27.70;69.20
10046;DHT22;5063;50.878;4.742;2023-06-14T13:02:58;27.60;68.30
10046;DHT22;5063;50.878;4.742;2023-06-14T13:05:24;27.50;67.10
10046;DHT22;5063;50.878;4.742;2023-06-14T13:07:50;27.50;67.50
10046;DHT22;5063;50.878;4.742;2023-06-14T13:10:17;27.50;67.10
10046;DHT22;5063;50.878;4.742;2023-06-14T13:12:43;27.40;67.80
10046;DHT22;5063;50.878;4.742;2023-06-14T13:15:09;27.70;67.20
10046;DHT22;5063;50.878;4.742;2023-06-14T13:17:36;27.80;67.10
10046;DHT22;5063;50.878;4.742;2023-06-14T13:20:07;27.80;64.80
10046;DHT22;5063;50.878;4.742;2023-06-14T13:22:34;27.80;67.50
10046;DHT22;5063;50.878;4.742;2023-06-14T13:25:00;27.80;65.20
10046;DHT22;5063;50.878;4.742;2023-06-14T13:27:27;27.80;65.90
10046;DHT22;5063;50.878;4.742;2023-06-14T13:29:53;27.80;64.00
10046;DHT22;5063;50.878;4.742;2023-06-14T13:32:21;27.70;66.40
10046;DHT22;5063;50.878;4.742;2023-06-14T13:34:47;27.90;65.70
10046;DHT22;5063;50.878;4.742;2023-06-14T13:37:13;28.10;65.40
10046;DHT22;5063;50.878;4.742;2023-06-14T13:39:39;28.20;63.70
10046;DHT22;5063;50.878;4.742;2023-06-14T13:42:05;28.10;64.20
10046;DHT22;5063;50.878;4.742;2023-06-14T13:44:31;28.00;63.30
10046;DHT22;5063;50.878;4.742;2023-06-14T13:46:57;27.90;63.90
10046;DHT22;5063;50.878;4.742;2023-06-14T13:49:23;28.00;64.60
10046;DHT22;5063;50.878;4.742;2023-06-14T13:51:48;28.00;63.70
10046;DHT22;5063;50.878;4.742;2023-06-14T13:54:14;27.90;64.30
10046;DHT22;5063;50.878;4.742;2023-06-14T13:56:41;27.90;62.50
10046;DHT22;5063;50.878;4.742;2023-06-14T13:59:07;27.60;62.20
10046;DHT22;5063;50.878;4.742;2023-06-14T14:01:33;27.60;64.50
10046;DHT22;5063;50.878;4.742;2023-06-14T14:03:59;27.50;63.00
10046;DHT22;5063;50.878;4.742;2023-06-14T14:06:26;27.60;65.40
10046;DHT22;5063;50.878;4.742;2023-06-14T14:08:52;27.80;66.10
10046;DHT22;5063;50.878;4.742;2023-06-14T14:11:18;28.00;66.40
10046;DHT22;5063;50.878;4.742;2023-06-14T14:13:44;28.10;64.10
10046;DHT22;5063;50.878;4.742;2023-06-14T14:16:10;28.20;64.70
10046;DHT22;5063;50.878;4.742;2023-06-14T14:18:36;28.10;65.00
10046;DHT22;5063;50.878;4.742;2023-06-14T14:21:03;28.10;63.80
10046;DHT22;5063;50.878;4.742;2023-06-14T14:23:28;28.20;63.30
10046;DHT22;5063;50.878;4.742;2023-06-14T14:25:55;28.30;64.50
10046;DHT22;5063;50.878;4.742;2023-06-14T14:28:20;28.40;63.60
10046;DHT22;5063;50.878;4.742;2023-06-14T14:30:47;28.60;64.90
10046;DHT22;5063;50.878;4.742;2023-06-14T14:33:16;28.40;63.20
10046;DHT22;5063;50.878;4.742;2023-06-14T14:35:44;28.30;63.70
10046;DHT22;5063;50.878;4.742;2023-06-14T14:38:13;28.40;65.10
10046;DHT22;5063;50.878;4.742;2023-06-14T14:40:40;28.60;63.40
10046;DHT22;5063;50.878;4.742;2023-06-14T14:43:06;28.70;65.20
10046;DHT22;5063;50.878;4.742;2023-06-14T14:45:32;28.80;63.10
10046;DHT22;5063;50.878;4.742;2023-06-14T14:48:00;29.00;63.40
10046;DHT22;5063;50.878;4.742;2023-06-14T14:50:25;28.90;65.40
10046;DHT22;5063;50.878;4.742;2023-06-14T14:52:51;29.00;62.90
10046;DHT22;5063;50.878;4.742;2023-06-14T14:55:17;29.00;62.70
10046;DHT22;5063;50.878;4.742;2023-06-14T14:57:43;29.20;64.40
10046;DHT22;5063;50.878;4.742;2023-06-14T15:00:09;29.40;62.90
10046;DHT22;5063;50.878;4.742;2023-06-14T15:02:35;29.40;64.20
10046;DHT22;5063;50.878;4.742;2023-06-14T15:05:01;29.40;61.90
10046;DHT22;5063;50.878;4.742;2023-06-14T15:07:28;29.60;62.20
10046;DHT22;5063;50.878;4.742;2023-06-14T15:09:55;29.70;63.50
10046;DHT22;5063;50.878;4.742;2023-06-14T15:12:21;29.50;61.90
10046;DHT22;5063;50.878;4.742;2023-06-14T15:14:50;29.50;61.10
10046;DHT22;5063;50.878;4.742;2023-06-14T15:17:18;29.50;62.50
10046;DHT22;5063;50.878;4.742;2023-06-14T15:19:47;29.40;62.00
10046;DHT22;5063;50.878;4.742;2023-06-14T15:22:14;29.30;62.60
10046;DHT22;5063;50.878;4.742;2023-06-14T15:24:43;29.50;64.40
10046;DHT22;5063;50.878;4.742;2023-06-14T15:27:09;29.70;63.40
10046;DHT22;5063;50.878;4.742;2023-06-14T15:29:36;29.80;64.90
10046;DHT22;5063;50.878;4.742;2023-06-14T15:32:02;29.60;64.70
10046;DHT22;5063;50.878;4.742;2023-06-14T15:34:30;29.40;63.80
10046;DHT22;5063;50.878;4.742;2023-06-14T15:36:56;29.20;63.80
10046;DHT22;5063;50.878;4.742;2023-06-14T15:39:22;29.40;64.70
10046;DHT22;5063;50.878;4.742;2023-06-14T15:41:48;29.50;63.00
10046;DHT22;5063;50.878;4.742;2023-06-14T15:44:15;29.70;64.90
10046;DHT22;5063;50.878;4.742;2023-06-14T15:46:41;29.90;63.80
10046;DHT22;5063;50.878;4.742;2023-06-14T15:49:10;30.00;63.10
10046;DHT22;5063;50.878;4.742;2023-06-14T15:51:36;30.00;62.40
10046;DHT22;5063;50.878;4.742;2023-06-14T15:54:02;29.80;61.80
10046;DHT22;5063;50.878;4.742;2023-06-14T15:56:28;29.80;62.70
10046;DHT22;5063;50.878;4.742;2023-06-14T15:58:54;29.70;62.20
10046;DHT22;5063;50.878;4.742;2023-06-14T16:01:22;29.70;62.50